Time;durP1;ratioP1;P1;durP2;ratioP2;P2;SDS_P1;SDS_P2;PMS_P1;PMS_P2;Temp;Humidity;BMP_temperature;BMP_pressure;BME280_temperature;BME280_humidity;BME280_pressure;Samples;Min_cycle;Max_cycle;Signal;HPM_P1;HPM_P2
2023/01/12 00:02:16;;;;;;;12.03;1.77;;;8.30;99.90;;;;;;5003172;28;20046;-69
2023/01/12 00:04:42;;;;;;;10.68;2.17;;;8.30;99.90;;;;;;4997931;28;20064;-69
2023/01/12 00:07:10;;;;;;;11.90;2.47;;;8.30;99.90;;;;;;5001784;28;20041;-69
2023/01/12 00:09:36;;;;;;;12.73;1.98;;;8.40;99.90;;;;;;5016156;28;20147;-68
2023/01/12 00:12:05;;;;;;;14.43;2.63;;;8.40;99.90;;;;;;5005671;28;20474;-67
2023/01/12 00:14:33;;;;;;;18.25;2.00;;;8.40;99.90;;;;;;5012517;28;20058;-66
2023/01/12 00:16:58;;;;;;;14.68;1.92;;;8.40;99.90;;;;;;5018768;28;20049;-68
2023/01/12 00:19:24;;;;;;;9.47;1.90;;;8.40;99.90;;;;;;5002202;28;20624;-68
2023/01/12 00:22:11;;;;;;;14.90;2.83;;;8.50;99.90;;;;;;5004031;28;20080;-67
2023/01/12 00:24:38;;;;;;;16.17;2.40;;;8.50;99.90;;;;;;4990072;28;20136;-67
2023/01/12 00:27:07;;;;;;;;;;;8.50;99.90;;;;;;5022396;28;20061;-68
2023/01/12 00:29:34;;;;;;;9.35;2.08;;;8.50;99.90;;;;;;5016462;28;20023;-68
2023/01/12 00:32:00;;;;;;;9.48;2.35;;;8.50;99.90;;;;;;5019690;28;20045;-67
2023/01/12 00:34:26;;;;;;;13.33;2.77;;;8.60;99.90;;;;;;5020561;28;20428;-67
2023/01/12 00:36:52;;;;;;;11.55;2.10;;;8.50;99.90;;;;;;5004070;28;20302;-68
2023/01/12 00:39:18;;;;;;;20.38;1.75;;;8.50;99.90;;;;;;5010599;28;20437;-67
2023/01/12 00:47:15;;;;;;;11.80;3.35;;;8.50;99.90;;;;;;5004303;28;20692;-69
2023/01/12 00:49:41;;;;;;;18.27;2.30;;;8.50;99.90;;;;;;5002440;28;20041;-67
2023/01/12 00:52:12;;;;;;;8.82;1.77;;;8.50;99.90;;;;;;5003073;28;20123;-68
2023/01/12 00:54:39;;;;;;;11.40;1.27;;;8.50;99.90;;;;;;5018786;28;20141;-67
2023/01/12 00:57:10;;;;;;;13.55;1.70;;;8.50;99.90;;;;;;5001086;28;20197;-69
2023/01/12 00:59:36;;;;;;;12.52;1.95;;;8.50;99.90;;;;;;5016725;28;20112;-67
2023/01/12 01:02:03;;;;;;;8.30;1.80;;;8.50;99.90;;;;;;5022507;28;20141;-68
2023/01/12 01:04:29;;;;;;;7.07;1.40;;;8.40;99.90;;;;;;4997282;28;20409;-69
2023/01/12 01:06:54;;;;;;;16.93;2.67;;;8.40;99.90;;;;;;5000118;28;20041;-69
2023/01/12 01:09:20;;;;;;;19.10;2.47;;;8.40;99.90;;;;;;5018228;28;20511;-67
2023/01/12 01:11:46;;;;;;;13.07;1.80;;;8.50;99.90;;;;;;5002483;28;20471;-69
2023/01/12 01:14:11;;;;;;;13.10;2.00;;;8.40;99.90;;;;;;5019629;28;20479;-67
2023/01/12 01:16:37;;;;;;;12.63;2.53;;;8.40;99.90;;;;;;5003314;28;20053;-67
2023/01/12 01:19:04;;;;;;;12.33;2.57;;;8.40;99.90;;;;;;5004545;28;20053;-68
2023/01/12 01:21:33;;;;;;;10.63;2.30;;;8.40;99.90;;;;;;5019332;28;20418;-68
2023/01/12 01:23:59;;;;;;;18.38;2.50;;;8.40;99.90;;;;;;5010080;28;20138;-68
2023/01/12 01:26:29;;;;;;;8.15;1.75;;;8.40;99.90;;;;;;5001406;28;20045;-68
2023/01/12 01:28:59;;;;;;;9.43;1.60;;;8.40;99.90;;;;;;5007192;28;20056;-68
2023/01/12 01:31:25;;;;;;;11.18;2.35;;;8.40;99.90;;;;;;5001237;28;20066;-68
2023/01/12 01:33:51;;;;;;;13.65;1.65;;;8.40;99.90;;;;;;5003729;28;20049;-67
2023/01/12 01:36:17;;;;;;;8.88;2.00;;;8.40;99.90;;;;;;5015676;28;20265;-67
2023/01/12 01:38:46;;;;;;;10.23;2.08;;;8.40;99.90;;;;;;5016379;28;20098;-67
2023/01/12 01:41:24;;;;;;;16.63;2.78;;;8.50;99.90;;;;;;5015779;28;20049;-68
2023/01/12 01:44:28;;;;;;;16.52;2.35;;;8.40;99.90;;;;;;5020102;28;20067;-67
2023/01/12 01:47:05;;;;;;;11.70;2.10;;;8.40;99.90;;;;;;5010145;28;20092;-68
2023/01/12 01:49:52;;;;;;;12.45;1.88;;;8.50;99.90;;;;;;5011618;28;20451;-68
2023/01/12 01:52:27;;;;;;;13.57;1.53;;;8.50;99.90;;;;;;5014651;28;20593;-70
2023/01/12 01:55:02;;;;;;;8.68;2.17;;;8.50;99.90;;;;;;5019065;28;20033;-68
2023/01/12 01:57:35;;;;;;;19.00;2.28;;;8.50;99.90;;;;;;5009369;28;20054;-68
2023/01/12 02:00:03;;;;;;;7.85;1.85;;;8.50;99.90;;;;;;4996766;28;20041;-68
2023/01/12 02:02:28;;;;;;;16.25;2.13;;;8.50;99.90;;;;;;5005802;28;20175;-67
2023/01/12 02:04:55;;;;;;;10.80;2.67;;;8.50;99.90;;;;;;5006047;28;20104;-68
2023/01/12 02:07:21;;;;;;;;;;;8.50;99.90;;;;;;5001890;28;20064;-67
2023/01/12 02:09:46;;;;;;;11.55;2.15;;;8.50;99.90;;;;;;5000409;28;20314;-68
2023/01/12 02:17:42;;;;;;;14.48;2.17;;;8.50;99.90;;;;;;5001612;28;20050;-68
2023/01/12 02:20:29;;;;;;;20.20;2.47;;;8.50;99.90;;;;;;5025554;28;20052;-69
2023/01/12 02:23:52;;;;;;;9.55;1.63;;;8.50;99.90;;;;;;4998967;28;20344;-67
2023/01/12 02:26:36;;;;;;;9.98;2.75;;;8.50;99.90;;;;;;4925601;29;20167;-68
2023/01/12 02:29:39;;;;;;;14.02;2.30;;;8.50;99.90;;;;;;4915809;29;20047;-68
2023/01/12 02:32:42;;;;;;;14.88;3.67;;;8.50;99.90;;;;;;4974722;28;20156;-68
2023/01/12 02:35:11;;;;;;;15.77;2.55;;;8.50;99.90;;;;;;4986122;28;20056;-68
2023/01/12 02:37:58;;;;;;;11.55;2.13;;;8.50;99.90;;;;;;5018445;28;20480;-68
2023/01/12 02:40:30;;;;;;;15.38;2.25;;;8.50;99.90;;;;;;5024698;28;20045;-68
2023/01/12 02:43:07;;;;;;;15.75;2.45;;;8.50;99.90;;;;;;5000012;28;20050;-68
2023/01/12 02:45:41;;;;;;;20.60;3.80;;;8.50;99.90;;;;;;5023075;28;20049;-68
2023/01/12 02:48:21;;;;;;;12.70;2.47;;;8.50;99.90;;;;;;5018963;28;20042;-68
2023/01/12 02:51:14;;;;;;;12.80;1.80;;;8.50;99.90;;;;;;5016447;28;20180;-68
2023/01/12 02:53:53;;;;;;;21.88;2.30;;;8.50;99.90;;;;;;5027943;28;20045;-68
2023/01/12 02:56:38;;;;;;;11.40;1.88;;;8.50;99.90;;;;;;5009729;28;20103;-68
2023/01/12 02:59:13;;;;;;;14.15;1.75;;;8.50;99.90;;;;;;5027023;28;20037;-67
2023/01/12 03:01:41;;;;;;;11.55;1.60;;;8.50;99.90;;;;;;5013346;28;20541;-68
2023/01/12 03:04:09;;;;;;;16.77;2.63;;;8.50;99.90;;;;;;5025151;28;20442;-68
2023/01/12 03:07:18;;;;;;;11.68;3.35;;;8.50;99.90;;;;;;5003307;28;20056;-67
2023/01/12 03:09:52;;;;;;;16.80;3.05;;;8.50;99.90;;;;;;4991495;28;20133;-67
2023/01/12 03:12:26;;;;;;;9.98;2.10;;;8.50;99.90;;;;;;5007884;28;20048;-68
2023/01/12 03:14:55;;;;;;;20.48;2.85;;;8.60;99.90;;;;;;5008616;28;20534;-68
2023/01/12 03:17:30;;;;;;;17.70;2.85;;;8.50;99.90;;;;;;5025425;28;20587;-68
2023/01/12 03:20:04;;;;;;;10.73;2.58;;;8.60;99.90;;;;;;5018426;28;20444;-68
2023/01/12 03:22:35;;;;;;;13.20;2.70;;;8.60;99.90;;;;;;5024472;28;20060;-68
2023/01/12 03:25:03;;;;;;;14.18;2.25;;;8.60;99.90;;;;;;5026432;28;20041;-67
2023/01/12 03:27:38;;;;;;;12.32;2.35;;;8.60;99.90;;;;;;5023991;28;20068;-67
2023/01/12 03:30:13;;;;;;;12.30;2.75;;;8.60;99.90;;;;;;5014482;28;20137;-67
2023/01/12 03:32:39;;;;;;;12.93;2.92;;;8.70;99.90;;;;;;5026236;28;20049;-68
2023/01/12 03:35:07;;;;;;;11.90;2.63;;;8.70;99.90;;;;;;5024880;28;20034;-68
2023/01/12 03:37:52;;;;;;;8.27;2.33;;;8.70;99.90;;;;;;5026699;28;20141;-68
2023/01/12 03:40:36;;;;;;;13.02;2.55;;;8.70;99.90;;;;;;5022290;28;20038;-68
2023/01/12 03:43:10;;;;;;;12.63;2.40;;;8.70;99.90;;;;;;5020235;28;20045;-68
2023/01/12 03:45:48;;;;;;;17.17;2.42;;;8.70;99.90;;;;;;5025636;28;20103;-68
2023/01/12 03:48:23;;;;;;;20.20;3.60;;;8.80;99.90;;;;;;5002851;28;20144;-68
2023/01/12 03:51:12;;;;;;;20.25;2.83;;;8.80;99.90;;;;;;5025030;28;20081;-67
2023/01/12 03:53:40;;;;;;;13.13;2.05;;;8.80;99.90;;;;;;5011302;28;20057;-68
2023/01/12 03:56:09;;;;;;;12.57;2.40;;;8.80;99.90;;;;;;5006440;28;20545;-67
2023/01/12 03:58:36;;;;;;;22.63;3.00;;;8.90;99.90;;;;;;5004116;28;20084;-68
2023/01/12 04:01:03;;;;;;;15.15;1.90;;;8.90;99.90;;;;;;5023954;28;20049;-68
2023/01/12 04:03:28;;;;;;;12.43;2.22;;;8.90;99.90;;;;;;5008369;28;20415;-67
2023/01/12 04:05:54;;;;;;;9.67;1.90;;;8.90;99.90;;;;;;5025441;28;20216;-67
2023/01/12 04:08:20;;;;;;;10.40;2.03;;;8.90;99.90;;;;;;5011757;28;20068;-68
2023/01/12 04:10:46;;;;;;;13.07;1.90;;;8.90;99.90;;;;;;5017326;28;20087;-68
2023/01/12 04:13:11;;;;;;;9.20;2.33;;;8.80;99.90;;;;;;5026303;28;20628;-68
2023/01/12 04:15:41;;;;;;;16.50;2.20;;;8.90;99.90;;;;;;4992012;28;20037;-68
2023/01/12 04:18:08;;;;;;;12.98;2.00;;;8.80;99.90;;;;;;5023204;28;20042;-68
2023/01/12 04:20:33;;;;;;;7.82;1.70;;;8.90;99.90;;;;;;5011727;28;20117;-68
2023/01/12 04:22:59;;;;;;;10.90;1.33;;;8.90;99.90;;;;;;5025911;28;20267;-67
2023/01/12 04:25:25;;;;;;;10.27;1.60;;;8.90;99.90;;;;;;5008873;28;20060;-68
2023/01/12 04:28:00;;;;;;;8.13;1.40;;;8.90;99.90;;;;;;5003530;28;20499;-67
2023/01/12 04:30:27;;;;;;;10.00;1.50;;;8.90;99.90;;;;;;5004931;28;20061;-68
2023/01/12 04:32:54;;;;;;;9.07;1.58;;;8.80;99.90;;;;;;5022541;28;20045;-68
2023/01/12 04:35:20;;;;;;;11.52;2.97;;;8.80;99.90;;;;;;5023786;28;20044;-68
2023/01/12 04:37:46;;;;;;;7.78;1.45;;;8.80;99.90;;;;;;5005030;28;20045;-67
2023/01/12 04:40:14;;;;;;;7.77;1.70;;;8.80;99.90;;;;;;5003659;28;20044;-68
2023/01/12 04:43:10;;;;;;;8.77;1.77;;;8.70;99.90;;;;;;4994169;28;20045;-68
2023/01/12 04:45:42;;;;;;;5.95;1.30;;;8.70;99.90;;;;;;5000964;28;20045;-68
2023/01/12 04:48:13;;;;;;;7.80;1.25;;;8.70;99.90;;;;;;4999170;28;20046;-68
2023/01/12 04:50:39;;;;;;;5.00;1.13;;;8.60;99.90;;;;;;5025492;28;20056;-68
2023/01/12 04:53:08;;;;;;;6.95;1.70;;;8.70;99.90;;;;;;5024651;28;20045;-68
2023/01/12 04:55:39;;;;;;;5.18;1.20;;;8.70;99.90;;;;;;5019795;28;20104;-68
2023/01/12 04:58:05;;;;;;;6.00;1.33;;;8.60;99.90;;;;;;5019360;28;20297;-68
2023/01/12 05:00:31;;;;;;;4.57;0.87;;;8.60;99.90;;;;;;5022020;28;20049;-68
2023/01/12 05:02:59;;;;;;;3.53;1.13;;;8.60;99.90;;;;;;5024812;28;20041;-67
2023/01/12 05:05:25;;;;;;;7.63;0.90;;;8.60;99.90;;;;;;5022586;28;20053;-67
2023/01/12 05:10:36;;;;;;;3.13;0.60;;;8.60;99.90;;;;;;5022232;28;20132;-68
2023/01/12 05:13:01;;;;;;;7.43;1.43;;;8.60;99.90;;;;;;5025172;28;20041;-67
2023/01/12 05:15:27;;;;;;;4.27;0.80;;;8.60;99.90;;;;;;5000003;28;20033;-67
2023/01/12 05:17:53;;;;;;;6.27;1.00;;;8.60;99.90;;;;;;5000290;28;20041;-67
2023/01/12 05:20:19;;;;;;;3.40;0.70;;;8.60;99.90;;;;;;5003681;28;20109;-67
2023/01/12 05:22:47;;;;;;;4.05;0.85;;;8.50;99.90;;;;;;5021752;28;20511;-67
2023/01/12 05:25:13;;;;;;;3.72;0.90;;;8.50;99.90;;;;;;5022943;28;20101;-68
2023/01/12 05:27:39;;;;;;;;;;;8.50;99.90;;;;;;5022922;28;20041;-67
2023/01/12 05:30:05;;;;;;;2.47;0.70;;;8.60;99.90;;;;;;5022243;28;20529;-68
2023/01/12 05:32:40;;;;;;;2.00;0.68;;;8.60;99.90;;;;;;5024087;28;20048;-67
2023/01/12 05:35:07;;;;;;;2.83;0.93;;;8.60;99.90;;;;;;5021964;28;20053;-68
2023/01/12 05:37:33;;;;;;;1.70;0.68;;;8.60;99.90;;;;;;5021796;28;20384;-68
2023/01/12 05:39:59;;;;;;;1.73;0.70;;;8.60;99.90;;;;;;4999524;28;20041;-68
2023/01/12 05:45:10;;;;;;;2.00;0.68;;;8.60;99.90;;;;;;5002631;28;20296;-68
2023/01/12 05:47:35;;;;;;;3.42;0.60;;;8.60;99.90;;;;;;5003446;28;20044;-68
2023/01/12 05:50:02;;;;;;;3.25;0.73;;;8.60;99.90;;;;;;5021267;28;20045;-68
2023/01/12 05:52:27;;;;;;;1.35;0.90;;;8.60;99.90;;;;;;5024197;28;20082;-67
2023/01/12 05:54:53;;;;;;;1.90;0.73;;;8.60;99.90;;;;;;5022676;28;20116;-67
2023/01/12 05:57:19;;;;;;;2.40;0.43;;;8.60;99.90;;;;;;4997898;28;20061;-67
2023/01/12 05:59:44;;;;;;;2.67;0.93;;;8.60;99.90;;;;;;5020502;28;20045;-67
2023/01/12 06:02:12;;;;;;;1.20;0.40;;;8.60;99.90;;;;;;5014458;28;20352;-67
2023/01/12 06:04:38;;;;;;;0.82;0.50;;;8.60;99.90;;;;;;5001548;28;20057;-68
2023/01/12 06:07:04;;;;;;;2.50;0.50;;;8.60;99.90;;;;;;5014515;28;20360;-68
2023/01/12 06:09:30;;;;;;;2.60;0.90;;;8.70;99.90;;;;;;5015187;28;20282;-68
2023/01/12 06:14:40;;;;;;;0.90;0.50;;;8.70;99.90;;;;;;5007563;28;20084;-67
2023/01/12 06:17:05;;;;;;;1.73;0.50;;;8.70;99.90;;;;;;5027671;28;20263;-68
2023/01/12 06:19:31;;;;;;;1.33;0.30;;;8.80;99.90;;;;;;5001239;28;20047;-68
2023/01/12 06:21:58;;;;;;;1.10;0.40;;;8.80;99.90;;;;;;5026572;28;20095;-68
2023/01/12 06:24:26;;;;;;;0.88;0.30;;;8.80;99.90;;;;;;5027713;28;20124;-68
2023/01/12 06:26:53;;;;;;;0.65;0.20;;;8.90;99.90;;;;;;5017639;28;20049;-68
2023/01/12 06:29:19;;;;;;;;;;;8.90;99.90;;;;;;5007599;28;20060;-67
2023/01/12 06:31:44;;;;;;;1.10;0.40;;;9.00;99.90;;;;;;5007433;28;19917;-67
2023/01/12 06:34:10;;;;;;;4.03;0.97;;;9.00;99.90;;;;;;5027713;28;20178;-68
2023/01/12 06:36:37;;;;;;;4.43;1.45;;;8.90;99.90;;;;;;5009823;28;20300;-68
2023/01/12 06:39:03;;;;;;;12.68;3.47;;;9.10;99.90;;;;;;5001069;28;20046;-68
2023/01/12 06:44:13;;;;;;;13.38;3.15;;;9.10;99.90;;;;;;5013797;28;20057;-68
2023/01/12 06:46:39;;;;;;;8.77;2.33;;;9.20;99.90;;;;;;5025287;28;20495;-68
2023/01/12 06:49:05;;;;;;;14.70;4.27;;;9.20;99.90;;;;;;5025305;28;20105;-69
2023/01/12 06:51:30;;;;;;;7.00;1.33;;;9.30;99.90;;;;;;5030118;28;20041;-68
2023/01/12 06:53:56;;;;;;;13.80;2.90;;;9.40;99.90;;;;;;5009167;28;20371;-68
2023/01/12 06:56:22;;;;;;;8.03;1.73;;;9.50;99.90;;;;;;5010313;28;20050;-69
2023/01/12 06:58:48;;;;;;;15.07;2.75;;;9.60;99.90;;;;;;5020205;28;20147;-68
2023/01/12 07:01:13;;;;;;;10.13;2.03;;;9.60;99.90;;;;;;5016861;28;20103;-68
2023/01/12 07:03:39;;;;;;;11.77;2.08;;;9.70;99.90;;;;;;5024194;28;20502;-68
2023/01/12 07:06:05;;;;;;;18.08;2.28;;;9.80;99.90;;;;;;5024480;28;20451;-69
2023/01/12 07:08:31;;;;;;;12.80;1.83;;;9.90;99.90;;;;;;5024307;28;20041;-68
2023/01/12 07:11:00;;;;;;;9.88;2.00;;;10.00;99.90;;;;;;5026553;28;20117;-69
2023/01/12 07:13:26;;;;;;;18.35;3.17;;;10.10;99.90;;;;;;5024004;28;20049;-69
2023/01/12 07:15:52;;;;;;;9.03;1.80;;;10.10;99.90;;;;;;5002785;28;20468;-68
2023/01/12 07:18:17;;;;;;;12.10;2.80;;;10.20;99.90;;;;;;5011620;28;20054;-68
2023/01/12 07:20:44;;;;;;;18.03;2.47;;;10.20;99.90;;;;;;5023736;28;20041;-70
2023/01/12 07:23:10;;;;;;;17.70;2.63;;;10.30;99.90;;;;;;5006847;28;20064;-71
2023/01/12 07:25:35;;;;;;;14.50;2.13;;;10.20;99.90;;;;;;5026171;28;20041;-69
2023/01/12 07:28:01;;;;;;;16.00;2.10;;;10.30;99.90;;;;;;5027396;28;20075;-70
2023/01/12 07:30:27;;;;;;;12.53;3.03;;;10.30;99.90;;;;;;5024666;28;20186;-70
2023/01/12 07:32:52;;;;;;;11.57;3.23;;;10.30;99.90;;;;;;5019111;28;20057;-70
2023/01/12 07:35:18;;;;;;;16.77;3.20;;;10.40;99.90;;;;;;5026498;28;20044;-69
2023/01/12 07:37:49;;;;;;;11.07;2.67;;;10.40;99.90;;;;;;5008111;28;20044;-69
2023/01/12 07:40:15;;;;;;;10.15;2.83;;;10.40;99.90;;;;;;5008746;28;20517;-70
2023/01/12 07:42:40;;;;;;;11.07;1.75;;;10.40;99.90;;;;;;5006259;28;20133;-68
2023/01/12 07:45:07;;;;;;;10.13;2.97;;;10.40;99.90;;;;;;5027937;28;20128;-69
2023/01/12 07:47:32;;;;;;;15.00;2.35;;;10.40;99.90;;;;;;5024775;28;20037;-70
2023/01/12 07:49:58;;;;;;;13.40;2.93;;;10.50;99.90;;;;;;5020823;28;20056;-69
2023/01/12 07:52:24;;;;;;;12.32;2.22;;;10.40;99.90;;;;;;5025990;28;20045;-67
2023/01/12 07:54:49;;;;;;;9.50;1.90;;;10.40;99.90;;;;;;5026376;28;20167;-67
2023/01/12 07:57:15;;;;;;;17.10;3.60;;;10.50;99.90;;;;;;5020164;28;20511;-68
2023/01/12 07:59:40;;;;;;;10.93;1.77;;;10.40;99.90;;;;;;5025014;28;20560;-68
2023/01/12 08:02:15;;;;;;;13.97;2.97;;;10.40;99.90;;;;;;4999734;28;20189;-68
2023/01/12 08:04:45;;;;;;;22.05;2.45;;;10.50;99.90;;;;;;5003246;28;20100;-68
2023/01/12 08:07:11;;;;;;;17.33;3.47;;;10.50;99.90;;;;;;5022159;28;20105;-68
2023/01/12 08:09:36;;;;;;;14.98;2.85;;;10.50;99.90;;;;;;4998870;28;20053;-68
2023/01/12 08:12:02;;;;;;;18.93;3.43;;;10.50;99.90;;;;;;5025364;28;20052;-68
2023/01/12 08:14:35;;;;;;;15.90;3.00;;;10.50;99.90;;;;;;5026717;28;20051;-68
2023/01/12 08:17:05;;;;;;;10.77;2.33;;;10.50;99.90;;;;;;5022423;28;20295;-68
2023/01/12 08:19:43;;;;;;;16.15;2.72;;;10.60;99.90;;;;;;5022249;28;20045;-68
2023/01/12 08:22:15;;;;;;;17.45;3.00;;;10.60;99.90;;;;;;5023564;28;20191;-68
2023/01/12 08:24:52;;;;;;;15.93;3.63;;;10.60;99.90;;;;;;5018684;28;20198;-68
2023/01/12 08:27:22;;;;;;;12.00;3.35;;;10.50;99.90;;;;;;5024376;28;20064;-68
2023/01/12 08:29:53;;;;;;;10.73;2.13;;;10.60;99.90;;;;;;5022617;28;20483;-67
2023/01/12 08:32:18;;;;;;;13.77;2.38;;;10.70;99.90;;;;;;5025526;28;20060;-68
2023/01/12 08:34:47;;;;;;;17.10;2.37;;;10.60;99.90;;;;;;5024907;28;20119;-68
2023/01/12 08:37:15;;;;;;;12.80;2.25;;;10.60;99.90;;;;;;5019527;28;20037;-68
2023/01/12 08:39:41;;;;;;;9.93;2.58;;;10.60;99.90;;;;;;4997879;28;20041;-68
2023/01/12 08:42:07;;;;;;;20.63;3.13;;;10.60;99.90;;;;;;5025992;28;20124;-69
2023/01/12 08:44:36;;;;;;;11.07;2.70;;;10.60;99.90;;;;;;5013350;28;20092;-69
2023/01/12 08:47:04;;;;;;;16.98;3.53;;;10.70;99.90;;;;;;5024734;28;20049;-68
2023/01/12 08:49:32;;;;;;;16.45;2.88;;;10.70;99.90;;;;;;5025312;28;20076;-68
2023/01/12 08:51:57;;;;;;;11.57;2.42;;;10.70;99.90;;;;;;5024729;28;20041;-68
2023/01/12 08:54:23;;;;;;;10.60;2.30;;;10.70;99.90;;;;;;5023557;28;20376;-69
2023/01/12 08:56:49;;;;;;;6.60;1.65;;;10.60;99.90;;;;;;5023409;28;20052;-69
2023/01/12 08:59:15;;;;;;;15.48;1.65;;;10.70;99.90;;;;;;5015429;28;20034;-68
2023/01/12 09:01:41;;;;;;;12.95;1.60;;;10.70;99.90;;;;;;5007690;28;20042;-68
2023/01/12 09:04:07;;;;;;;8.00;1.55;;;10.70;99.90;;;;;;5025310;28;20120;-68
2023/01/12 09:06:41;;;;;;;16.60;2.53;;;10.70;99.90;;;;;;5024537;28;20175;-68
2023/01/12 09:09:10;;;;;;;13.18;2.28;;;10.70;99.90;;;;;;5015193;28;20062;-68
2023/01/12 09:11:37;;;;;;;12.30;2.10;;;10.70;99.90;;;;;;5021761;28;20392;-68
2023/01/12 09:14:03;;;;;;;8.57;1.52;;;10.70;99.90;;;;;;5011569;28;20245;-67
2023/01/12 09:16:30;;;;;;;9.88;2.03;;;10.70;99.90;;;;;;5006503;28;20048;-68
2023/01/12 09:18:56;;;;;;;6.63;1.50;;;10.70;99.90;;;;;;5000189;28;20436;-69
2023/01/12 09:21:24;;;;;;;8.27;1.77;;;10.80;99.90;;;;;;5025683;28;20146;-69
2023/01/12 09:23:50;;;;;;;12.23;1.95;;;10.80;99.90;;;;;;5027646;28;20266;-69
2023/01/12 09:26:20;;;;;;;11.98;1.80;;;10.80;99.90;;;;;;5024731;28;20116;-68
2023/01/12 09:28:46;;;;;;;12.60;1.65;;;10.80;99.90;;;;;;5026527;28;20138;-68
2023/01/12 09:31:15;;;;;;;11.35;1.63;;;10.80;99.90;;;;;;5008881;28;20167;-68
2023/01/12 09:33:41;;;;;;;10.85;2.15;;;10.90;99.90;;;;;;5026152;28;20151;-69
2023/01/12 09:36:13;;;;;;;6.07;1.58;;;10.80;99.90;;;;;;5009101;28;20036;-69
2023/01/12 09:38:40;;;;;;;10.25;2.05;;;10.80;99.90;;;;;;5032252;28;20099;-68
2023/01/12 09:47:09;;;;;;;14.33;2.23;;;10.90;99.90;;;;;;5025090;28;20144;-68
2023/01/12 09:49:42;;;;;;;19.10;3.35;;;11.00;99.90;;;;;;5029733;28;20271;-69
2023/01/12 09:52:23;;;;;;;14.18;1.90;;;11.00;99.90;;;;;;5027297;28;20041;-68
2023/01/12 09:54:51;;;;;;;10.43;2.38;;;11.00;99.90;;;;;;5023978;28;20056;-69
2023/01/12 09:57:39;;;;;;;16.58;2.47;;;11.00;99.90;;;;;;5009626;28;20149;-67
2023/01/12 10:00:16;;;;;;;10.75;1.95;;;11.00;99.90;;;;;;5028292;28;20420;-68
2023/01/12 10:03:02;;;;;;;10.43;2.30;;;11.00;99.90;;;;;;5007700;28;20045;-68
2023/01/12 10:05:47;;;;;;;13.45;2.00;;;11.10;99.90;;;;;;5023712;28;20113;-68
2023/01/12 10:08:40;;;;;;;16.92;3.25;;;11.10;99.90;;;;;;5025509;28;20101;-68
2023/01/12 10:11:09;;;;;;;16.83;3.30;;;11.10;99.90;;;;;;5003682;28;20049;-67
2023/01/12 10:13:43;;;;;;;15.45;2.75;;;11.10;99.90;;;;;;4999720;28;20057;-69
2023/01/12 10:16:42;;;;;;;10.80;2.30;;;11.10;99.90;;;;;;5010905;28;20383;-68
2023/01/12 10:19:36;;;;;;;8.73;1.75;;;11.20;99.90;;;;;;4997938;28;20059;-67
2023/01/12 10:22:35;;;;;;;9.60;2.08;;;11.20;99.90;;;;;;5030032;28;20029;-68
2023/01/12 10:25:38;;;;;;;6.88;2.00;;;11.10;99.90;;;;;;5023018;28;20049;-68
2023/01/12 10:28:12;;;;;;;20.63;2.65;;;11.10;99.90;;;;;;5022806;28;20382;-67
2023/01/12 10:30:39;;;;;;;14.80;2.60;;;11.10;99.90;;;;;;5006746;28;20079;-68
2023/01/12 10:33:13;;;;;;;6.93;1.73;;;11.10;99.90;;;;;;5030630;28;20098;-68
2023/01/12 10:35:58;;;;;;;10.18;2.05;;;11.10;99.90;;;;;;5026099;28;20094;-67
2023/01/12 10:38:36;;;;;;;18.02;2.50;;;11.10;99.90;;;;;;5023380;28;20037;-68
2023/01/12 10:41:16;;;;;;;9.90;2.17;;;11.10;99.90;;;;;;5006846;28;20055;-68
2023/01/12 10:44:02;;;;;;;13.15;1.77;;;11.10;99.90;;;;;;5007332;28;20131;-68
2023/01/12 10:46:30;;;;;;;12.60;1.83;;;11.10;99.90;;;;;;5008343;28;20044;-68
2023/01/12 10:49:17;;;;;;;7.25;1.55;;;11.10;99.90;;;;;;5010078;28;20051;-68
2023/01/12 10:52:29;;;;;;;8.05;1.40;;;11.20;99.90;;;;;;5010940;28;20052;-68
2023/01/12 10:54:55;;;;;;;11.70;2.17;;;11.20;99.90;;;;;;5024443;28;20037;-67
2023/01/12 10:57:23;;;;;;;10.13;2.23;;;11.20;99.90;;;;;;5011254;28;20048;-68
2023/01/12 10:59:57;;;;;;;16.38;2.53;;;11.20;99.90;;;;;;5029865;28;20045;-68
2023/01/12 11:02:39;;;;;;;10.70;1.75;;;11.20;99.90;;;;;;5027644;28;20034;-68
2023/01/12 11:05:32;;;;;;;10.88;1.92;;;11.20;99.90;;;;;;5029033;28;20075;-68
2023/01/12 11:07:59;;;;;;;10.73;2.13;;;11.30;99.90;;;;;;5030222;28;20422;-68
2023/01/12 11:10:31;;;;;;;9.68;2.53;;;11.30;99.90;;;;;;5026202;28;20055;-68
2023/01/12 11:12:59;;;;;;;11.20;1.85;;;11.30;99.90;;;;;;5017001;28;20124;-68
2023/01/12 11:15:26;;;;;;;18.80;2.50;;;11.30;99.90;;;;;;5021714;28;20459;-68
2023/01/12 11:18:10;;;;;;;18.45;2.40;;;11.30;99.90;;;;;;5027505;28;20037;-68
2023/01/12 11:21:09;;;;;;;14.50;2.25;;;11.30;99.90;;;;;;5022898;28;20045;-68
2023/01/12 11:23:37;;;;;;;10.00;1.65;;;11.40;99.90;;;;;;5023758;28;20068;-68
2023/01/12 11:26:14;;;;;;;13.48;1.77;;;11.40;99.90;;;;;;5008904;28;20335;-68
2023/01/12 11:28:46;;;;;;;9.02;1.60;;;11.40;99.90;;;;;;5013925;28;20049;-68
2023/01/12 11:31:27;;;;;;;5.18;1.15;;;11.50;99.90;;;;;;5024198;28;20183;-68
2023/01/12 11:33:56;;;;;;;12.32;2.33;;;11.50;99.90;;;;;;5000906;28;20041;-68
2023/01/12 11:36:36;;;;;;;17.13;2.20;;;11.60;99.90;;;;;;5023964;28;20044;-68
2023/01/12 11:39:11;;;;;;;10.02;2.65;;;11.60;99.90;;;;;;5022606;28;20107;-68
2023/01/12 11:41:40;;;;;;;10.50;2.25;;;11.60;99.90;;;;;;5023528;28;20088;-69
2023/01/12 11:44:31;;;;;;;13.23;2.45;;;11.60;99.90;;;;;;5019157;28;20069;-67
2023/01/12 11:47:11;;;;;;;6.75;1.48;;;11.60;99.90;;;;;;5019419;28;20411;-68
2023/01/12 11:50:14;;;;;;;7.55;2.22;;;11.70;99.90;;;;;;5001422;28;20042;-68
2023/01/12 11:52:41;;;;;;;7.22;1.77;;;11.70;99.90;;;;;;5009743;28;20051;-67
2023/01/12 11:55:15;;;;;;;10.55;2.70;;;11.70;99.90;;;;;;5052025;22;20040;-71
2023/01/12 11:57:52;;;;;;;10.27;2.83;;;11.70;99.90;;;;;;5015190;28;20048;-71
2023/01/12 12:00:48;;;;;;;10.13;2.35;;;11.70;99.90;;;;;;5011247;28;20037;-73
2023/01/12 12:03:41;;;;;;;10.70;2.13;;;11.70;99.90;;;;;;5023834;28;20192;-73
2023/01/12 12:06:21;;;;;;;7.43;2.30;;;11.60;99.90;;;;;;5016782;28;20040;-73
2023/01/12 12:09:08;;;;;;;10.63;1.63;;;11.60;99.90;;;;;;5031792;28;20673;-73
2023/01/12 12:11:52;;;;;;;9.48;1.48;;;11.60;99.90;;;;;;5032031;28;20041;-73
2023/01/12 12:14:44;;;;;;;9.35;2.13;;;11.60;99.90;;;;;;5013424;28;20257;-73
2023/01/12 12:17:28;;;;;;;13.25;2.28;;;11.60;99.90;;;;;;5036713;28;20049;-73
2023/01/12 12:20:00;;;;;;;18.35;4.65;;;11.60;99.90;;;;;;5041693;28;20037;-73
2023/01/12 12:22:37;;;;;;;18.05;3.83;;;11.60;99.90;;;;;;5035353;28;20061;-73
2023/01/12 12:25:11;;;;;;;16.70;3.25;;;11.50;99.90;;;;;;5019317;28;20067;-73
2023/01/12 12:27:58;;;;;;;16.90;3.67;;;11.60;99.90;;;;;;5014812;28;20045;-72
2023/01/12 12:30:48;;;;;;;12.63;3.38;;;11.60;99.90;;;;;;5022582;28;20430;-72
2023/01/12 12:33:29;;;;;;;14.25;2.75;;;11.50;99.90;;;;;;5003876;28;20372;-71
2023/01/12 12:36:01;;;;;;;16.88;4.47;;;11.50;99.90;;;;;;5000432;28;20116;-72
2023/01/12 12:39:01;;;;;;;16.38;2.92;;;11.60;99.90;;;;;;5008834;28;20040;-71
2023/01/12 12:47:47;;;;;;;13.38;2.75;;;11.50;99.90;;;;;;5038817;28;20192;-71
2023/01/12 12:50:21;;;;;;;21.60;5.03;;;11.50;99.90;;;;;;5043209;28;20279;-71
2023/01/12 12:53:01;;;;;;;12.10;4.03;;;11.50;99.90;;;;;;5028019;28;20039;-73
2023/01/12 12:55:27;;;;;;;11.43;2.60;;;11.50;99.90;;;;;;5019626;28;20073;-71
2023/01/12 12:58:04;;;;;;;14.30;2.70;;;11.50;99.90;;;;;;5037674;28;20073;-71
2023/01/12 13:00:41;;;;;;;16.52;5.82;;;11.50;99.90;;;;;;5012038;28;20740;-72
2023/01/12 13:03:08;;;;;;;11.07;2.78;;;11.40;99.90;;;;;;5015515;28;20037;-72
2023/01/12 13:05:44;;;;;;;18.30;3.63;;;11.40;99.90;;;;;;5020871;28;20083;-72
2023/01/12 13:08:21;;;;;;;26.83;4.00;;;11.50;99.90;;;;;;5035475;28;20376;-72
2023/01/12 13:10:57;;;;;;;17.27;3.55;;;11.40;99.90;;;;;;5022201;28;20052;-72
2023/01/12 13:13:32;;;;;;;12.03;2.27;;;11.50;99.90;;;;;;5028574;28;20045;-72
2023/01/12 13:16:10;;;;;;;12.23;2.50;;;11.40;99.90;;;;;;5019146;28;20095;-72
2023/01/12 13:19:04;;;;;;;10.82;3.13;;;11.50;99.90;;;;;;5000190;28;20055;-72
2023/01/12 13:21:42;;;;;;;9.43;3.55;;;11.50;99.90;;;;;;5034735;28;20064;-72
2023/01/12 13:24:13;;;;;;;9.00;1.65;;;11.50;99.90;;;;;;5016630;28;20037;-72
2023/01/12 13:26:44;;;;;;;16.60;2.15;;;11.40;99.90;;;;;;5012350;28;20495;-72
2023/01/12 13:29:27;;;;;;;15.48;2.22;;;11.40;99.90;;;;;;5041567;28;20708;-72
2023/01/12 13:32:17;;;;;;;9.50;2.03;;;11.40;99.90;;;;;;5041376;28;20037;-72
2023/01/12 13:34:45;;;;;;;9.73;1.90;;;11.40;99.90;;;;;;5000252;28;20053;-72
2023/01/12 13:37:25;;;;;;;13.82;2.03;;;11.40;99.90;;;;;;5013399;28;20383;-72
2023/01/12 13:40:06;;;;;;;16.33;3.17;;;11.40;99.90;;;;;;5012334;28;20225;-72
2023/01/12 13:45:18;;;;;;;10.98;2.03;;;11.40;99.90;;;;;;4994555;28;20068;-72
2023/01/12 13:47:46;;;;;;;13.60;2.90;;;11.40;99.90;;;;;;5019038;28;20118;-72
2023/01/12 13:50:19;;;;;;;16.83;4.18;;;11.40;99.90;;;;;;5030479;28;20712;-72